Time;durP1;ratioP1;P1;durP2;ratioP2;P2;SDS_P1;SDS_P2;PMS_P1;PMS_P2;Temp;Humidity;BMP_temperature;BMP_pressure;BME280_temperature;BME280_humidity;BME280_pressure;Samples;Min_cycle;Max_cycle;Signal;HPM_P1;HPM_P2
2022/11/28 00:00:48;;;;;;;;;;;;;;;;;;7366114;19;870;-70
2022/11/28 00:03:16;;;;;;;;;;;;;;;;;;7364340;19;1280;-70
2022/11/28 00:05:44;;;;;;;;;;;;;;;;;;7364858;19;1849;-69
2022/11/28 00:08:12;;;;;;;;;;;;;;;;;;7366563;19;1913;-69
2022/11/28 00:10:41;;;;;;;;;;;;;;;;;;7368029;19;1916;-68
2022/11/28 00:13:09;;;;;;;;;;;;;;;;;;7366420;19;1283;-68
2022/11/28 00:15:37;;;;;;;;;;;;;;;;;;7364916;19;1884;-68
2022/11/28 00:18:05;;;;;;;;;;;;;;;;;;7366567;19;803;-69
2022/11/28 00:20:33;;;;;;;;;;;;;;;;;;7371846;19;804;-68
2022/11/28 00:23:01;;;;;;;;;;;;;;;;;;7371116;19;872;-69
2022/11/28 00:25:29;;;;;;;;;;;;;;;;;;7372940;19;1869;-67
2022/11/28 00:27:58;;;;;;;;;;;;;;;;;;7379664;19;1911;-68
2022/11/28 00:30:26;;;;;;;;;;;;;;;;;;7391647;19;823;-68
2022/11/28 00:32:54;;;;;;;;;;;;;;;;;;7395517;19;1325;-68
2022/11/28 00:35:22;;;;;;;;;;;;;;;;;;7389834;19;1236;-68
2022/11/28 00:37:50;;;;;;;;;;;;;;;;;;7374550;19;854;-68
2022/11/28 00:40:18;;;;;;;;;;;;;;;;;;7374581;19;875;-68
2022/11/28 00:42:46;;;;;;;;;;;;;;;;;;7375851;19;1848;-68
2022/11/28 00:45:15;;;;;;;;;;;;;;;;;;7368907;19;1355;-68
2022/11/28 00:47:43;;;;;;;;;;;;;;;;;;7370679;19;767;-67
2022/11/28 00:50:11;;;;;;;;;;;;;;;;;;7370864;19;828;-68
2022/11/28 00:52:39;;;;;;;;;;;;;;;;;;7376212;19;1723;-68
2022/11/28 00:55:07;;;;;;;;;;;;;;;;;;7369649;19;1289;-69
2022/11/28 00:57:35;;;;;;;;;;;;;;;;;;7371599;19;2226;-67
2022/11/28 01:00:04;;;;;;;;;;;;;;;;;;7371197;19;781;-68
2022/11/28 01:02:32;;;;;;;;;;;;;;;;;;7372788;19;1898;-69
2022/11/28 01:05:00;;;;;;;;;;;;;;;;;;7372639;19;1343;-67
2022/11/28 01:07:29;;;;;;;;;;;;;;;;;;7368673;19;1857;-66
2022/11/28 01:09:57;;;;;;;;;;;;;;;;;;7370967;19;2118;-67
2022/11/28 01:12:25;;;;;;;;;;;;;;;;;;7371403;19;757;-67
2022/11/28 01:14:54;;;;;;;;;;;;;;;;;;7369374;19;1893;-67
2022/11/28 01:17:23;;;;;;;;;;;;;;;;;;7370653;19;885;-66
2022/11/28 01:19:51;;;;;;;;;;;;;;;;;;7368973;19;799;-65
2022/11/28 01:22:19;;;;;;;;;;;;;;;;;;7370008;19;835;-68
2022/11/28 01:24:47;;;;;;;;;;;;;;;;;;7367841;19;1343;-67
2022/11/28 01:27:15;;;;;;;;;;;;;;;;;;7368981;19;1848;-68
2022/11/28 01:29:43;;;;;;;;;;;;;;;;;;7367966;19;813;-68
2022/11/28 01:32:11;;;;;;;;;;;;;;;;;;7372460;19;1847;-67
2022/11/28 01:34:40;;;;;;;;;;;;;;;;;;7368044;19;1267;-67
2022/11/28 01:37:08;;;;;;;;;;;;;;;;;;7369515;19;828;-67
2022/11/28 01:39:36;;;;;;;;;;;;;;;;;;7368688;19;855;-67
2022/11/28 01:42:04;;;;;;;;;;;;;;;;;;7369067;19;806;-68
2022/11/28 01:44:32;;;;;;;;;;;;;;;;;;7368166;19;1271;-68
2022/11/28 01:47:00;;;;;;;;;;;;;;;;;;7368759;19;1846;-67
2022/11/28 01:49:28;;;;;;;;;;;;;;;;;;7372298;19;2085;-67
2022/11/28 01:51:56;;;;;;;;;;;;;;;;;;7369415;19;859;-67
2022/11/28 01:54:25;;;;;;;;;;;;;;;;;;7368149;19;1286;-67
2022/11/28 01:56:53;;;;;;;;;;;;;;;;;;7369834;19;790;-68
2022/11/28 01:59:21;;;;;;;;;;;;;;;;;;7368886;19;815;-67
2022/11/28 02:01:49;;;;;;;;;;;;;;;;;;7369917;19;849;-68
2022/11/28 02:04:17;;;;;;;;;;;;;;;;;;7371869;19;1871;-68
2022/11/28 02:06:45;;;;;;;;;;;;;;;;;;7367887;19;1837;-67
2022/11/28 02:09:13;;;;;;;;;;;;;;;;;;7368559;19;1837;-67
2022/11/28 02:11:42;;;;;;;;;;;;;;;;;;7369457;19;791;-67
2022/11/28 02:14:10;;;;;;;;;;;;;;;;;;7367724;19;1212;-67
2022/11/28 02:16:38;;;;;;;;;;;;;;;;;;7370597;19;1872;-67
2022/11/28 02:19:06;;;;;;;;;;;;;;;;;;7368377;19;852;-67
2022/11/28 02:21:34;;;;;;;;;;;;;;;;;;7368604;19;1028;-66
2022/11/28 02:24:02;;;;;;;;;;;;;;;;;;7368075;19;1323;-66
2022/11/28 02:26:30;;;;;;;;;;;;;;;;;;7371582;19;1879;-66
2022/11/28 02:28:59;;;;;;;;;;;;;;;;;;7368222;19;831;-66
2022/11/28 02:31:27;;;;;;;;;;;;;;;;;;7371154;19;1656;-66
2022/11/28 02:33:55;;;;;;;;;;;;;;;;;;7368087;19;1283;-67
2022/11/28 02:36:23;;;;;;;;;;;;;;;;;;7368949;19;857;-68
2022/11/28 02:38:51;;;;;;;;;;;;;;;;;;7368879;19;870;-68
2022/11/28 02:41:19;;;;;;;;;;;;;;;;;;7365223;19;865;-67
2022/11/28 02:43:47;;;;;;;;;;;;;;;;;;7368527;19;1333;-67
2022/11/28 02:46:15;;;;;;;;;;;;;;;;;;7367741;19;1841;-68
2022/11/28 02:48:44;;;;;;;;;;;;;;;;;;7371495;19;1942;-67
2022/11/28 02:51:12;;;;;;;;;;;;;;;;;;7367840;19;1941;-67
2022/11/28 02:53:40;;;;;;;;;;;;;;;;;;7367478;19;1338;-67
2022/11/28 02:56:08;;;;;;;;;;;;;;;;;;7368193;19;756;-68
2022/11/28 02:58:37;;;;;;;;;;;;;;;;;;7367269;19;867;-67
2022/11/28 03:01:05;;;;;;;;;;;;;;;;;;7370872;19;1860;-67
2022/11/28 03:03:33;;;;;;;;;;;;;;;;;;7370776;19;1861;-66
2022/11/28 03:06:01;;;;;;;;;;;;;;;;;;7370270;19;1844;-66
2022/11/28 03:08:29;;;;;;;;;;;;;;;;;;7364922;19;869;-67
2022/11/28 03:10:57;;;;;;;;;;;;;;;;;;7366873;19;807;-67
2022/11/28 03:13:25;;;;;;;;;;;;;;;;;;7366672;19;1275;-67
2022/11/28 03:15:53;;;;;;;;;;;;;;;;;;7366352;19;828;-68
2022/11/28 03:18:22;;;;;;;;;;;;;;;;;;7366190;19;961;-67
2022/11/28 03:20:50;;;;;;;;;;;;;;;;;;7367044;19;1903;-66
2022/11/28 03:23:18;;;;;;;;;;;;;;;;;;7368269;19;1875;-67
2022/11/28 03:25:46;;;;;;;;;;;;;;;;;;7366245;19;823;-66
2022/11/28 03:28:15;;;;;;;;;;;;;;;;;;7363048;19;1894;-67
2022/11/28 03:30:43;;;;;;;;;;;;;;;;;;7366533;19;848;-67
2022/11/28 03:33:11;;;;;;;;;;;;;;;;;;7366891;19;1271;-67
2022/11/28 03:35:39;;;;;;;;;;;;;;;;;;7365802;19;799;-66
2022/11/28 03:38:07;;;;;;;;;;;;;;;;;;7367847;19;1706;-66
2022/11/28 03:40:36;;;;;;;;;;;;;;;;;;7364491;19;822;-66
2022/11/28 03:43:04;;;;;;;;;;;;;;;;;;7365841;19;760;-66
2022/11/28 03:45:32;;;;;;;;;;;;;;;;;;7363258;19;1397;-66
2022/11/28 03:48:00;;;;;;;;;;;;;;;;;;7362493;19;1842;-67
2022/11/28 03:50:28;;;;;;;;;;;;;;;;;;7365677;19;889;-67
2022/11/28 03:52:58;;;;;;;;;;;;;;;;;;7368903;19;1888;-66
2022/11/28 03:55:26;;;;;;;;;;;;;;;;;;7367214;19;1876;-66
2022/11/28 03:57:54;;;;;;;;;;;;;;;;;;7363840;19;802;-66
2022/11/28 04:00:23;;;;;;;;;;;;;;;;;;7365925;19;845;-66
2022/11/28 04:02:52;;;;;;;;;;;;;;;;;;7364862;19;833;-66
2022/11/28 04:05:20;;;;;;;;;;;;;;;;;;7362338;19;1276;-67
2022/11/28 04:07:48;;;;;;;;;;;;;;;;;;7362665;19;1839;-67
2022/11/28 04:10:16;;;;;;;;;;;;;;;;;;7364846;19;1813;-67
2022/11/28 04:12:44;;;;;;;;;;;;;;;;;;7368942;19;1893;-67
2022/11/28 04:15:12;;;;;;;;;;;;;;;;;;7362066;19;1281;-67
2022/11/28 04:17:41;;;;;;;;;;;;;;;;;;7364774;19;805;-67
2022/11/28 04:20:09;;;;;;;;;;;;;;;;;;7364544;19;870;-67
2022/11/28 04:22:37;;;;;;;;;;;;;;;;;;7365075;19;890;-67
2022/11/28 04:25:05;;;;;;;;;;;;;;;;;;7362843;19;1271;-68
2022/11/28 04:27:33;;;;;;;;;;;;;;;;;;7363447;19;1899;-67
2022/11/28 04:30:01;;;;;;;;;;;;;;;;;;7363730;19;795;-68
2022/11/28 04:32:29;;;;;;;;;;;;;;;;;;7364994;19;863;-67
2022/11/28 04:34:58;;;;;;;;;;;;;;;;;;7361503;19;1275;-68
2022/11/28 04:37:26;;;;;;;;;;;;;;;;;;7362211;19;813;-67
2022/11/28 04:39:54;;;;;;;;;;;;;;;;;;7363187;19;790;-68
2022/11/28 04:42:22;;;;;;;;;;;;;;;;;;7364180;19;815;-68
2022/11/28 04:44:50;;;;;;;;;;;;;;;;;;7364643;19;1895;-67
2022/11/28 04:47:18;;;;;;;;;;;;;;;;;;7366644;19;1861;-67
2022/11/28 04:49:47;;;;;;;;;;;;;;;;;;7363307;19;809;-69
2022/11/28 04:52:15;;;;;;;;;;;;;;;;;;7363731;19;854;-67
2022/11/28 04:54:43;;;;;;;;;;;;;;;;;;7362371;19;1301;-66
2022/11/28 04:57:12;;;;;;;;;;;;;;;;;;7364088;19;866;-67
2022/11/28 04:59:40;;;;;;;;;;;;;;;;;;7363485;19;810;-67
2022/11/28 05:02:08;;;;;;;;;;;;;;;;;;7367630;19;1861;-67
2022/11/28 05:04:36;;;;;;;;;;;;;;;;;;7365627;19;1337;-68
2022/11/28 05:07:04;;;;;;;;;;;;;;;;;;7368776;19;1829;-68
2022/11/28 05:09:32;;;;;;;;;;;;;;;;;;7370433;19;819;-67
2022/11/28 05:12:00;;;;;;;;;;;;;;;;;;7371526;19;830;-68
2022/11/28 05:14:28;;;;;;;;;;;;;;;;;;7369125;19;1313;-68
2022/11/28 05:16:57;;;;;;;;;;;;;;;;;;7371048;19;779;-68
2022/11/28 05:19:25;;;;;;;;;;;;;;;;;;7371935;19;1737;-68
2022/11/28 05:21:53;;;;;;;;;;;;;;;;;;7369907;19;836;-68
2022/11/28 05:24:21;;;;;;;;;;;;;;;;;;7369091;19;1318;-68
2022/11/28 05:26:50;;;;;;;;;;;;;;;;;;7372095;19;1868;-68
2022/11/28 05:29:18;;;;;;;;;;;;;;;;;;7369008;19;819;-67
2022/11/28 05:31:46;;;;;;;;;;;;;;;;;;7369431;19;871;-67
2022/11/28 05:34:14;;;;;;;;;;;;;;;;;;7369892;19;1252;-68
2022/11/28 05:36:42;;;;;;;;;;;;;;;;;;7374189;19;1934;-68
2022/11/28 05:39:10;;;;;;;;;;;;;;;;;;7368645;19;861;-68
2022/11/28 05:41:38;;;;;;;;;;;;;;;;;;7367550;19;892;-66
2022/11/28 05:44:07;;;;;;;;;;;;;;;;;;7368274;19;1322;-65
2022/11/28 05:46:35;;;;;;;;;;;;;;;;;;7369683;19;852;-65
2022/11/28 05:49:03;;;;;;;;;;;;;;;;;;7366216;19;1841;-66
2022/11/28 05:51:31;;;;;;;;;;;;;;;;;;7370162;19;1867;-65
2022/11/28 05:53:59;;;;;;;;;;;;;;;;;;7369154;19;1275;-65
2022/11/28 05:56:27;;;;;;;;;;;;;;;;;;7368785;19;866;-66
2022/11/28 05:58:56;;;;;;;;;;;;;;;;;;7368204;19;870;-66
2022/11/28 06:01:24;;;;;;;;;;;;;;;;;;7368888;19;863;-66
2022/11/28 06:03:56;;;;;;;;;;;;;;;;;;7366510;19;1353;-66
2022/11/28 06:06:25;;;;;;;;;;;;;;;;;;7368872;19;736;-66
2022/11/28 06:08:53;;;;;;;;;;;;;;;;;;7369485;19;1838;-66
2022/11/28 06:11:21;;;;;;;;;;;;;;;;;;7368320;19;840;-65
2022/11/28 06:13:49;;;;;;;;;;;;;;;;;;7368074;19;1326;-65
2022/11/28 06:16:17;;;;;;;;;;;;;;;;;;7367913;19;801;-66
2022/11/28 06:18:45;;;;;;;;;;;;;;;;;;7367436;19;880;-66
2022/11/28 06:21:13;;;;;;;;;;;;;;;;;;7368753;19;1889;-66
2022/11/28 06:23:42;;;;;;;;;;;;;;;;;;7367454;19;1270;-66
2022/11/28 06:26:10;;;;;;;;;;;;;;;;;;7368542;19;819;-66
2022/11/28 06:28:38;;;;;;;;;;;;;;;;;;7365030;19;1833;-67
2022/11/28 06:31:06;;;;;;;;;;;;;;;;;;7367774;19;1838;-66
2022/11/28 06:33:34;;;;;;;;;;;;;;;;;;7367936;19;1334;-66
2022/11/28 06:36:02;;;;;;;;;;;;;;;;;;7367583;19;812;-66
2022/11/28 06:38:31;;;;;;;;;;;;;;;;;;7369427;19;1877;-65
2022/11/28 06:40:59;;;;;;;;;;;;;;;;;;7365493;19;782;-65
2022/11/28 06:43:27;;;;;;;;;;;;;;;;;;7366858;19;1270;-66
2022/11/28 06:45:55;;;;;;;;;;;;;;;;;;7367409;19;899;-66
2022/11/28 06:48:23;;;;;;;;;;;;;;;;;;7364719;19;1841;-66
2022/11/28 06:50:51;;;;;;;;;;;;;;;;;;7366981;19;850;-66
2022/11/28 06:53:19;;;;;;;;;;;;;;;;;;7368131;19;1275;-66
2022/11/28 06:55:48;;;;;;;;;;;;;;;;;;7369921;19;1862;-66
2022/11/28 06:58:16;;;;;;;;;;;;;;;;;;7367164;19;861;-66
2022/11/28 07:00:44;;;;;;;;;;;;;;;;;;7367064;19;1721;-66
2022/11/28 07:03:12;;;;;;;;;;;;;;;;;;7371670;19;2361;-66
2022/11/28 07:05:40;;;;;;;;;;;;;;;;;;7367533;19;784;-66
2022/11/28 07:08:08;;;;;;;;;;;;;;;;;;7365946;19;1834;-67
2022/11/28 07:10:37;;;;;;;;;;;;;;;;;;7367185;19;935;-65
2022/11/28 07:13:06;;;;;;;;;;;;;;;;;;7372106;19;1945;-66
2022/11/28 07:15:34;;;;;;;;;;;;;;;;;;7364543;19;1279;-65
2022/11/28 07:18:02;;;;;;;;;;;;;;;;;;7367122;19;796;-65
2022/11/28 07:20:30;;;;;;;;;;;;;;;;;;7368736;19;889;-66
2022/11/28 07:22:58;;;;;;;;;;;;;;;;;;7368136;19;831;-68
2022/11/28 07:25:27;;;;;;;;;;;;;;;;;;7362151;19;1283;-67
2022/11/28 07:27:55;;;;;;;;;;;;;;;;;;7363216;19;2124;-68
2022/11/28 07:30:23;;;;;;;;;;;;;;;;;;7366833;19;787;-68
2022/11/28 07:32:51;;;;;;;;;;;;;;;;;;7367445;19;836;-67
2022/11/28 07:35:19;;;;;;;;;;;;;;;;;;7363964;19;1751;-67
2022/11/28 07:37:48;;;;;;;;;;;;;;;;;;7365593;19;788;-67
2022/11/28 07:40:17;;;;;;;;;;;;;;;;;;7366908;19;806;-67
2022/11/28 07:42:45;;;;;;;;;;;;;;;;;;7369165;19;932;-68
2022/11/28 07:45:13;;;;;;;;;;;;;;;;;;7366902;19;1943;-68
2022/11/28 07:47:41;;;;;;;;;;;;;;;;;;7367987;19;1839;-67
2022/11/28 07:50:10;;;;;;;;;;;;;;;;;;7368601;19;870;-67
2022/11/28 07:52:38;;;;;;;;;;;;;;;;;;7368549;19;809;-67
2022/11/28 07:55:07;;;;;;;;;;;;;;;;;;7364409;19;1361;-67
2022/11/28 07:57:35;;;;;;;;;;;;;;;;;;7368395;19;861;-66
2022/11/28 08:00:03;;;;;;;;;;;;;;;;;;7365952;19;779;-67
2022/11/28 08:02:40;;;;;;;;;;;;;;;;;;7369205;19;1853;-66
2022/11/28 08:05:08;;;;;;;;;;;;;;;;;;7363678;19;1909;-66
2022/11/28 08:07:36;;;;;;;;;;;;;;;;;;7365070;19;1829;-66
2022/11/28 08:10:05;;;;;;;;;;;;;;;;;;7364406;19;864;-67
2022/11/28 08:12:33;;;;;;;;;;;;;;;;;;7365959;19;812;-66
2022/11/28 08:15:01;;;;;;;;;;;;;;;;;;7363525;19;1291;-67
2022/11/28 08:17:29;;;;;;;;;;;;;;;;;;7364806;19;1854;-67
2022/11/28 08:19:57;;;;;;;;;;;;;;;;;;7364216;19;815;-66
2022/11/28 08:22:25;;;;;;;;;;;;;;;;;;7364796;19;817;-68
2022/11/28 08:24:53;;;;;;;;;;;;;;;;;;7363176;19;1317;-69
2022/11/28 08:27:22;;;;;;;;;;;;;;;;;;7366049;19;866;-69
2022/11/28 08:29:50;;;;;;;;;;;;;;;;;;7362001;19;1842;-69
2022/11/28 08:32:19;;;;;;;;;;;;;;;;;;7365834;19;838;-69
2022/11/28 08:34:47;;;;;;;;;;;;;;;;;;7365020;19;1765;-67
2022/11/28 08:37:15;;;;;;;;;;;;;;;;;;7366558;19;1889;-67
2022/11/28 08:39:43;;;;;;;;;;;;;;;;;;7369885;19;1841;-67
2022/11/28 08:42:11;;;;;;;;;;;;;;;;;;7371859;19;819;-67
2022/11/28 08:44:39;;;;;;;;;;;;;;;;;;7370400;19;1286;-68
2022/11/28 08:47:08;;;;;;;;;;;;;;;;;;7372242;19;1859;-68
2022/11/28 08:49:36;;;;;;;;;;;;;;;;;;7369182;19;1834;-69
2022/11/28 08:52:04;;;;;;;;;;;;;;;;;;7373499;19;1903;-68
2022/11/28 08:54:32;;;;;;;;;;;;;;;;;;7369383;19;1275;-68
2022/11/28 08:57:00;;;;;;;;;;;;;;;;;;7371235;19;831;-69
2022/11/28 08:59:29;;;;;;;;;;;;;;;;;;7369823;19;832;-70
2022/11/28 09:01:57;;;;;;;;;;;;;;;;;;7372276;19;867;-69
2022/11/28 09:04:25;;;;;;;;;;;;;;;;;;7370772;19;1276;-68
2022/11/28 09:06:53;;;;;;;;;;;;;;;;;;7371333;19;759;-70
2022/11/28 09:09:22;;;;;;;;;;;;;;;;;;7370645;19;1866;-68
2022/11/28 09:11:50;;;;;;;;;;;;;;;;;;7373913;19;1891;-70
2022/11/28 09:14:18;;;;;;;;;;;;;;;;;;7370506;19;1345;-70
2022/11/28 09:16:46;;;;;;;;;;;;;;;;;;7374720;19;1830;-69
2022/11/28 09:19:14;;;;;;;;;;;;;;;;;;7374396;19;2163;-70
2022/11/28 09:21:42;;;;;;;;;;;;;;;;;;7375158;19;1709;-69
2022/11/28 09:24:12;;;;;;;;;;;;;;;;;;7369450;19;1298;-70
2022/11/28 09:26:40;;;;;;;;;;;;;;;;;;7372458;19;1365;-69
2022/11/28 09:29:09;;;;;;;;;;;;;;;;;;7369042;19;1849;-69
2022/11/28 09:31:37;;;;;;;;;;;;;;;;;;7368624;19;808;-69
2022/11/28 09:34:05;;;;;;;;;;;;;;;;;;7369077;19;1332;-69
2022/11/28 09:36:33;;;;;;;;;;;;;;;;;;7369939;19;765;-68
2022/11/28 09:39:01;;;;;;;;;;;;;;;;;;7370224;19;1688;-69
2022/11/28 09:41:29;;;;;;;;;;;;;;;;;;7368756;19;793;-69
2022/11/28 09:43:58;;;;;;;;;;;;;;;;;;7368603;19;1290;-69
2022/11/28 09:46:26;;;;;;;;;;;;;;;;;;7368039;19;824;-69
2022/11/28 09:48:54;;;;;;;;;;;;;;;;;;7368626;19;1849;-68
2022/11/28 09:51:22;;;;;;;;;;;;;;;;;;7368700;19;805;-69
2022/11/28 09:53:50;;;;;;;;;;;;;;;;;;7366743;19;1282;-69
2022/11/28 09:56:18;;;;;;;;;;;;;;;;;;7373089;19;1840;-68
2022/11/28 09:58:46;;;;;;;;;;;;;;;;;;7368375;19;1843;-68
2022/11/28 10:01:15;;;;;;;;;;;;;;;;;;7370934;19;1612;-68
2022/11/28 10:03:43;;;;;;;;;;;;;;;;;;7367950;19;1887;-67
2022/11/28 10:06:11;;;;;;;;;;;;;;;;;;7368516;19;864;-67
2022/11/28 10:08:40;;;;;;;;;;;;;;;;;;7369534;19;1841;-66
2022/11/28 10:11:08;;;;;;;;;;;;;;;;;;7371095;19;1887;-70
2022/11/28 10:13:36;;;;;;;;;;;;;;;;;;7368632;19;1775;-70
2022/11/28 10:16:04;;;;;;;;;;;;;;;;;;7373391;19;1762;-70
2022/11/28 10:18:32;;;;;;;;;;;;;;;;;;7372311;19;1676;-70
2022/11/28 10:21:00;;;;;;;;;;;;;;;;;;7369374;19;1617;-67
2022/11/28 10:23:29;;;;;;;;;;;;;;;;;;7368595;19;1318;-70
2022/11/28 10:25:57;;;;;;;;;;;;;;;;;;7369308;19;1909;-70
2022/11/28 10:28:25;;;;;;;;;;;;;;;;;;7370135;19;1863;-68
2022/11/28 10:30:53;;;;;;;;;;;;;;;;;;7370675;19;1925;-68
2022/11/28 10:33:21;;;;;;;;;;;;;;;;;;7370870;19;1889;-68
2022/11/28 10:35:50;;;;;;;;;;;;;;;;;;7368580;19;878;-68
2022/11/28 10:38:24;;;;;;;;;;;;;;;;;;7367891;19;816;-68
2022/11/28 10:40:52;;;;;;;;;;;;;;;;;;7366405;19;743;-68
2022/11/28 10:43:20;;;;;;;;;;;;;;;;;;7367888;19;1279;-67
2022/11/28 10:45:48;;;;;;;;;;;;;;;;;;7367686;19;769;-66
2022/11/28 10:48:16;;;;;;;;;;;;;;;;;;7370473;19;1871;-68
2022/11/28 10:50:45;;;;;;;;;;;;;;;;;;7371128;19;1793;-69
2022/11/28 10:53:13;;;;;;;;;;;;;;;;;;7368028;19;1287;-68
2022/11/28 10:55:41;;;;;;;;;;;;;;;;;;7367588;19;855;-66
2022/11/28 10:58:09;;;;;;;;;;;;;;;;;;7366867;19;778;-67
2022/11/28 11:00:37;;;;;;;;;;;;;;;;;;7367564;19;810;-67
2022/11/28 11:03:05;;;;;;;;;;;;;;;;;;7365501;19;933;-68
2022/11/28 11:05:34;;;;;;;;;;;;;;;;;;7365296;19;1271;-68
2022/11/28 11:08:02;;;;;;;;;;;;;;;;;;7367021;19;716;-68
2022/11/28 11:10:30;;;;;;;;;;;;;;;;;;7362779;19;1838;-67
2022/11/28 11:12:58;;;;;;;;;;;;;;;;;;7367911;19;775;-68
2022/11/28 11:15:28;;;;;;;;;;;;;;;;;;7364294;19;1332;-67
2022/11/28 11:17:56;;;;;;;;;;;;;;;;;;7369420;19;1835;-69
2022/11/28 11:20:24;;;;;;;;;;;;;;;;;;7368057;19;2145;-69
2022/11/28 11:22:53;;;;;;;;;;;;;;;;;;7368592;19;847;-70
2022/11/28 11:25:21;;;;;;;;;;;;;;;;;;7364431;19;1271;-68
2022/11/28 11:27:49;;;;;;;;;;;;;;;;;;7369353;19;1868;-70
2022/11/28 11:30:18;;;;;;;;;;;;;;;;;;7365895;19;1846;-68
2022/11/28 11:32:46;;;;;;;;;;;;;;;;;;7370597;19;2124;-69
2022/11/28 11:35:14;;;;;;;;;;;;;;;;;;7364298;19;1251;-68
2022/11/28 11:37:42;;;;;;;;;;;;;;;;;;7367300;19;772;-68
2022/11/28 11:40:11;;;;;;;;;;;;;;;;;;7368002;19;811;-70
2022/11/28 11:42:39;;;;;;;;;;;;;;;;;;7367457;19;816;-68
2022/11/28 11:45:07;;;;;;;;;;;;;;;;;;7365252;19;1556;-70
2022/11/28 11:47:35;;;;;;;;;;;;;;;;;;7367457;19;771;-68
2022/11/28 11:50:03;;;;;;;;;;;;;;;;;;7365430;19;1834;-69
2022/11/28 11:52:31;;;;;;;;;;;;;;;;;;7366795;19;855;-72
2022/11/28 11:54:59;;;;;;;;;;;;;;;;;;7368803;19;1809;-68
2022/11/28 11:57:28;;;;;;;;;;;;;;;;;;7367475;19;852;-68
2022/11/28 11:59:56;;;;;;;;;;;;;;;;;;7366308;19;870;-71
2022/11/28 12:02:24;;;;;;;;;;;;;;;;;;7370219;19;1747;-69
2022/11/28 12:04:52;;;;;;;;;;;;;;;;;;7364595;19;1879;-69
2022/11/28 12:07:21;;;;;;;;;;;;;;;;;;7370036;19;1748;-70
2022/11/28 12:09:49;;;;;;;;;;;;;;;;;;7363886;19;1829;-70
2022/11/28 12:12:17;;;;;;;;;;;;;;;;;;7365778;19;771;-69
2022/11/28 12:14:45;;;;;;;;;;;;;;;;;;7371209;19;1290;-69
2022/11/28 12:17:13;;;;;;;;;;;;;;;;;;7373594;19;1893;-68
2022/11/28 12:19:41;;;;;;;;;;;;;;;;;;7371565;19;907;-68
2022/11/28 12:22:10;;;;;;;;;;;;;;;;;;7372133;19;813;-68
2022/11/28 12:24:39;;;;;;;;;;;;;;;;;;7371050;19;1377;-69
2022/11/28 12:27:07;;;;;;;;;;;;;;;;;;7372713;19;845;-69
2022/11/28 12:29:35;;;;;;;;;;;;;;;;;;7370507;19;1852;-68
2022/11/28 12:32:03;;;;;;;;;;;;;;;;;;7371625;19;889;-69
2022/11/28 12:34:32;;;;;;;;;;;;;;;;;;7371528;19;1378;-68
2022/11/28 12:37:00;;;;;;;;;;;;;;;;;;7372318;19;803;-68
2022/11/28 12:39:28;;;;;;;;;;;;;;;;;;7372047;19;797;-69
2022/11/28 12:41:56;;;;;;;;;;;;;;;;;;7372008;19;935;-68
2022/11/28 12:44:24;;;;;;;;;;;;;;;;;;7371071;19;1692;-68
2022/11/28 12:46:52;;;;;;;;;;;;;;;;;;7375537;19;2134;-69
2022/11/28 12:49:21;;;;;;;;;;;;;;;;;;7368840;19;1830;-69
2022/11/28 12:51:49;;;;;;;;;;;;;;;;;;7372464;19;802;-69
2022/11/28 12:54:17;;;;;;;;;;;;;;;;;;7379901;19;1868;-69
2022/11/28 12:56:47;;;;;;;;;;;;;;;;;;7379879;19;867;-68
2022/11/28 12:59:17;;;;;;;;;;;;;;;;;;7378918;19;719;-69
2022/11/28 13:01:46;;;;;;;;;;;;;;;;;;7379137;19;778;-72
2022/11/28 13:04:14;;;;;;;;;;;;;;;;;;7372109;19;1303;-69
2022/11/28 13:06:42;;;;;;;;;;;;;;;;;;7371081;19;783;-74
2022/11/28 13:09:10;;;;;;;;;;;;;;;;;;7370859;19;1837;-71
2022/11/28 13:11:39;;;;;;;;;;;;;;;;;;7371288;19;811;-70
2022/11/28 13:14:07;;;;;;;;;;;;;;;;;;7371175;19;1318;-70
2022/11/28 13:16:35;;;;;;;;;;;;;;;;;;7370393;19;790;-70
2022/11/28 13:19:03;;;;;;;;;;;;;;;;;;7370758;19;831;-70
2022/11/28 13:21:31;;;;;;;;;;;;;;;;;;7372008;19;780;-70
2022/11/28 13:23:59;;;;;;;;;;;;;;;;;;7372933;19;1877;-70
2022/11/28 13:26:27;;;;;;;;;;;;;;;;;;7369626;19;854;-70
2022/11/28 13:28:56;;;;;;;;;;;;;;;;;;7371794;19;861;-68
2022/11/28 13:31:24;;;;;;;;;;;;;;;;;;7370438;19;1843;-72
2022/11/28 13:33:52;;;;;;;;;;;;;;;;;;7369030;19;1317;-72
2022/11/28 13:36:20;;;;;;;;;;;;;;;;;;7371961;19;799;-71
2022/11/28 13:38:48;;;;;;;;;;;;;;;;;;7373024;19;1870;-71
2022/11/28 13:41:16;;;;;;;;;;;;;;;;;;7371590;19;878;-71
2022/11/28 13:43:45;;;;;;;;;;;;;;;;;;7370466;19;1238;-70
2022/11/28 13:46:13;;;;;;;;;;;;;;;;;;7370113;19;800;-72
2022/11/28 13:48:42;;;;;;;;;;;;;;;;;;7371181;19;818;-71
2022/11/28 13:51:10;;;;;;;;;;;;;;;;;;7368737;19;1842;-72
2022/11/28 13:53:38;;;;;;;;;;;;;;;;;;7373274;19;1600;-71
2022/11/28 13:56:07;;;;;;;;;;;;;;;;;;7370042;19;806;-68
2022/11/28 13:58:36;;;;;;;;;;;;;;;;;;7371390;19;801;-71
2022/11/28 14:01:04;;;;;;;;;;;;;;;;;;7371800;19;831;-69
2022/11/28 14:03:32;;;;;;;;;;;;;;;;;;7368957;19;1291;-71
2022/11/28 14:06:00;;;;;;;;;;;;;;;;;;7368413;19;775;-69
2022/11/28 14:08:29;;;;;;;;;;;;;;;;;;7373211;19;1857;-73
2022/11/28 14:10:57;;;;;;;;;;;;;;;;;;7369916;19;1853;-70
2022/11/28 14:13:25;;;;;;;;;;;;;;;;;;7374666;19;1419;-69
2022/11/28 14:15:53;;;;;;;;;;;;;;;;;;7372155;19;873;-73
2022/11/28 14:18:21;;;;;;;;;;;;;;;;;;7370995;19;834;-69
2022/11/28 14:20:50;;;;;;;;;;;;;;;;;;7370550;19;865;-70
2022/11/28 14:23:18;;;;;;;;;;;;;;;;;;7371026;19;1292;-69
2022/11/28 14:25:46;;;;;;;;;;;;;;;;;;7375195;19;820;-68
2022/11/28 14:28:14;;;;;;;;;;;;;;;;;;7374208;19;890;-71
2022/11/28 14:30:43;;;;;;;;;;;;;;;;;;7371943;19;1850;-72
2022/11/28 14:33:11;;;;;;;;;;;;;;;;;;7375064;19;795;-73
2022/11/28 14:35:39;;;;;;;;;;;;;;;;;;7380248;19;1811;-71
2022/11/28 14:38:08;;;;;;;;;;;;;;;;;;7370162;19;867;-72
2022/11/28 14:40:36;;;;;;;;;;;;;;;;;;7370227;19;810;-68
2022/11/28 14:43:04;;;;;;;;;;;;;;;;;;7367604;19;783;-70
2022/11/28 14:45:33;;;;;;;;;;;;;;;;;;7365398;19;1302;-70
2022/11/28 14:48:03;;;;;;;;;;;;;;;;;;7371335;19;1885;-73
2022/11/28 14:50:32;;;;;;;;;;;;;;;;;;7370737;19;1868;-71
2022/11/28 14:53:00;;;;;;;;;;;;;;;;;;7369281;19;862;-72
2022/11/28 14:55:28;;;;;;;;;;;;;;;;;;7366871;19;1274;-69
2022/11/28 14:57:56;;;;;;;;;;;;;;;;;;7369020;19;811;-72
2022/11/28 15:00:24;;;;;;;;;;;;;;;;;;7369835;19;798;-72
2022/11/28 15:02:54;;;;;;;;;;;;;;;;;;7369230;19;1797;-73
2022/11/28 15:05:23;;;;;;;;;;;;;;;;;;7366205;19;1376;-70
2022/11/28 15:07:51;;;;;;;;;;;;;;;;;;7368786;19;791;-71
2022/11/28 15:10:19;;;;;;;;;;;;;;;;;;7368525;19;1860;-69
2022/11/28 15:12:49;;;;;;;;;;;;;;;;;;7368334;19;880;-72
2022/11/28 15:15:19;;;;;;;;;;;;;;;;;;7364668;19;1301;-71
2022/11/28 15:17:47;;;;;;;;;;;;;;;;;;7369938;19;1872;-71
2022/11/28 15:20:16;;;;;;;;;;;;;;;;;;7372650;19;1418;-68
2022/11/28 15:22:44;;;;;;;;;;;;;;;;;;7366332;19;787;-70
2022/11/28 15:25:12;;;;;;;;;;;;;;;;;;7366605;19;1326;-73
2022/11/28 15:27:41;;;;;;;;;;;;;;;;;;7368438;19;1863;-72
2022/11/28 15:30:09;;;;;;;;;;;;;;;;;;7366175;19;1850;-69
2022/11/28 15:32:37;;;;;;;;;;;;;;;;;;7368209;19;899;-74
2022/11/28 15:35:05;;;;;;;;;;;;;;;;;;7367006;19;1314;-73
2022/11/28 15:37:34;;;;;;;;;;;;;;;;;;7367496;19;858;-74
2022/11/28 15:40:03;;;;;;;;;;;;;;;;;;7366236;19;890;-72
2022/11/28 15:42:32;;;;;;;;;;;;;;;;;;7365882;19;843;-73
2022/11/28 15:45:00;;;;;;;;;;;;;;;;;;7364807;19;1614;-72
2022/11/28 15:47:29;;;;;;;;;;;;;;;;;;7365467;19;780;-75
2022/11/28 15:49:57;;;;;;;;;;;;;;;;;;7367181;19;1837;-72
2022/11/28 15:52:25;;;;;;;;;;;;;;;;;;7367871;19;2333;-71
2022/11/28 15:54:54;;;;;;;;;;;;;;;;;;7371098;19;1932;-72
2022/11/28 15:57:22;;;;;;;;;;;;;;;;;;7369463;19;848;-70
2022/11/28 15:59:50;;;;;;;;;;;;;;;;;;7366863;19;877;-72
2022/11/28 16:02:21;;;;;;;;;;;;;;;;;;7367214;19;932;-70
2022/11/28 16:04:49;;;;;;;;;;;;;;;;;;7365057;19;1389;-71
2022/11/28 16:07:17;;;;;;;;;;;;;;;;;;7370009;19;1868;-71
2022/11/28 16:09:46;;;;;;;;;;;;;;;;;;7365848;19;890;-70
2022/11/28 16:12:14;;;;;;;;;;;;;;;;;;7365076;19;1846;-70
2022/11/28 16:14:42;;;;;;;;;;;;;;;;;;7364285;19;1323;-69
2022/11/28 16:17:10;;;;;;;;;;;;;;;;;;7365969;19;846;-68
2022/11/28 16:19:38;;;;;;;;;;;;;;;;;;7369408;19;1835;-68
2022/11/28 16:22:07;;;;;;;;;;;;;;;;;;7370524;19;1626;-71
2022/11/28 16:24:36;;;;;;;;;;;;;;;;;;7364108;19;1306;-69
2022/11/28 16:27:04;;;;;;;;;;;;;;;;;;7366440;19;787;-69
2022/11/28 16:29:32;;;;;;;;;;;;;;;;;;7365168;19;862;-70
2022/11/28 16:32:00;;;;;;;;;;;;;;;;;;7363582;19;1849;-70
2022/11/28 16:34:28;;;;;;;;;;;;;;;;;;7367984;19;2188;-70
2022/11/28 16:36:59;;;;;;;;;;;;;;;;;;7364308;19;825;-69
2022/11/28 16:39:27;;;;;;;;;;;;;;;;;;7369439;19;1742;-73
2022/11/28 16:41:57;;;;;;;;;;;;;;;;;;7372578;19;1604;-72
2022/11/28 16:44:25;;;;;;;;;;;;;;;;;;7363623;19;1314;-69
2022/11/28 16:46:53;;;;;;;;;;;;;;;;;;7365873;19;762;-69
2022/11/28 16:49:21;;;;;;;;;;;;;;;;;;7365487;19;827;-69
2022/11/28 16:51:49;;;;;;;;;;;;;;;;;;7362345;19;1867;-70
2022/11/28 16:54:17;;;;;;;;;;;;;;;;;;7364429;19;2014;-69
2022/11/28 16:56:46;;;;;;;;;;;;;;;;;;7364708;19;759;-69
2022/11/28 16:59:14;;;;;;;;;;;;;;;;;;7363683;19;819;-69
2022/11/28 17:01:42;;;;;;;;;;;;;;;;;;7370667;19;815;-69
2022/11/28 17:04:11;;;;;;;;;;;;;;;;;;7370928;19;1337;-69
2022/11/28 17:06:39;;;;;;;;;;;;;;;;;;7371311;19;819;-69
2022/11/28 17:09:08;;;;;;;;;;;;;;;;;;7370621;19;828;-70
2022/11/28 17:11:36;;;;;;;;;;;;;;;;;;7369788;19;1822;-69
2022/11/28 17:14:05;;;;;;;;;;;;;;;;;;7371835;19;1271;-69
2022/11/28 17:16:35;;;;;;;;;;;;;;;;;;7370541;19;881;-69